sensor_id;sensor_type;location;lat;lon;timestamp;P1;durP1;ratioP1;P2;durP2;ratioP2
16845;SDS011;8539;53.188;8.696;2024-01-30T00:01:03;15.35;;;12.30;;
16845;SDS011;8539;53.188;8.696;2024-01-30T00:03:31;20.70;;;13.73;;
16845;SDS011;8539;53.188;8.696;2024-01-30T00:05:58;22.25;;;13.38;;
16845;SDS011;8539;53.188;8.696;2024-01-30T00:08:26;24.33;;;13.35;;
16845;SDS011;8539;53.188;8.696;2024-01-30T00:10:53;17.40;;;13.88;;
16845;SDS011;8539;53.188;8.696;2024-01-30T00:13:20;21.80;;;14.93;;
16845;SDS011;8539;53.188;8.696;2024-01-30T00:15:48;25.15;;;14.07;;
16845;SDS011;8539;53.188;8.696;2024-01-30T00:18:18;14.07;;;11.43;;
16845;SDS011;8539;53.188;8.696;2024-01-30T00:20:46;17.25;;;12.90;;
16845;SDS011;8539;53.188;8.696;2024-01-30T00:23:46;19.15;;;12.95;;
16845;SDS011;8539;53.188;8.696;2024-01-30T00:26:31;17.73;;;12.45;;
16845;SDS011;8539;53.188;8.696;2024-01-30T00:31:49;21.13;;;13.52;;
16845;SDS011;8539;53.188;8.696;2024-01-30T00:37:04;19.23;;;14.20;;
16845;SDS011;8539;53.188;8.696;2024-01-30T00:39:31;24.58;;;14.18;;
16845;SDS011;8539;53.188;8.696;2024-01-30T00:41:59;17.42;;;13.07;;
16845;SDS011;8539;53.188;8.696;2024-01-30T00:44:29;18.02;;;13.07;;
16845;SDS011;8539;53.188;8.696;2024-01-30T00:46:56;18.10;;;13.82;;
16845;SDS011;8539;53.188;8.696;2024-01-30T00:49:24;25.63;;;14.75;;
16845;SDS011;8539;53.188;8.696;2024-01-30T00:51:54;19.88;;;13.20;;
16845;SDS011;8539;53.188;8.696;2024-01-30T00:54:22;19.15;;;14.43;;
16845;SDS011;8539;53.188;8.696;2024-01-30T00:56:49;22.50;;;15.68;;
16845;SDS011;8539;53.188;8.696;2024-01-30T00:59:17;18.05;;;13.27;;
16845;SDS011;8539;53.188;8.696;2024-01-30T01:01:47;24.05;;;13.10;;
16845;SDS011;8539;53.188;8.696;2024-01-30T01:04:15;20.90;;;14.13;;
16845;SDS011;8539;53.188;8.696;2024-01-30T01:06:44;23.90;;;15.45;;
16845;SDS011;8539;53.188;8.696;2024-01-30T01:09:12;22.35;;;15.63;;
16845;SDS011;8539;53.188;8.696;2024-01-30T01:11:50;20.83;;;15.63;;
16845;SDS011;8539;53.188;8.696;2024-01-30T01:14:22;20.83;;;14.57;;
16845;SDS011;8539;53.188;8.696;2024-01-30T01:17:05;30.08;;;15.57;;
16845;SDS011;8539;53.188;8.696;2024-01-30T01:19:33;22.00;;;14.43;;
16845;SDS011;8539;53.188;8.696;2024-01-30T01:22:05;20.85;;;14.55;;
16845;SDS011;8539;53.188;8.696;2024-01-30T01:24:48;19.10;;;13.57;;
16845;SDS011;8539;53.188;8.696;2024-01-30T01:27:15;20.90;;;13.50;;
16845;SDS011;8539;53.188;8.696;2024-01-30T01:29:43;21.42;;;14.20;;
16845;SDS011;8539;53.188;8.696;2024-01-30T01:32:13;19.08;;;13.30;;
16845;SDS011;8539;53.188;8.696;2024-01-30T01:34:45;20.17;;;14.25;;
16845;SDS011;8539;53.188;8.696;2024-01-30T01:37:13;24.35;;;13.65;;
16845;SDS011;8539;53.188;8.696;2024-01-30T01:39:48;18.95;;;12.73;;
16845;SDS011;8539;53.188;8.696;2024-01-30T01:42:21;20.45;;;13.45;;
16845;SDS011;8539;53.188;8.696;2024-01-30T01:44:49;18.55;;;12.93;;
16845;SDS011;8539;53.188;8.696;2024-01-30T01:49:50;16.67;;;12.75;;
16845;SDS011;8539;53.188;8.696;2024-01-30T01:52:19;19.48;;;13.85;;
16845;SDS011;8539;53.188;8.696;2024-01-30T01:54:50;18.83;;;13.52;;
16845;SDS011;8539;53.188;8.696;2024-01-30T01:57:17;16.98;;;12.32;;
16845;SDS011;8539;53.188;8.696;2024-01-30T01:59:45;20.15;;;12.60;;
16845;SDS011;8539;53.188;8.696;2024-01-30T02:02:13;20.10;;;13.57;;
16845;SDS011;8539;53.188;8.696;2024-01-30T02:04:50;23.27;;;13.65;;
16845;SDS011;8539;53.188;8.696;2024-01-30T02:07:17;20.05;;;13.60;;
16845;SDS011;8539;53.188;8.696;2024-01-30T02:09:45;22.50;;;14.38;;
16845;SDS011;8539;53.188;8.696;2024-01-30T02:12:15;18.77;;;13.05;;
16845;SDS011;8539;53.188;8.696;2024-01-30T02:14:46;20.35;;;13.35;;
16845;SDS011;8539;53.188;8.696;2024-01-30T02:17:16;17.67;;;13.38;;
16845;SDS011;8539;53.188;8.696;2024-01-30T02:19:44;19.63;;;13.50;;
16845;SDS011;8539;53.188;8.696;2024-01-30T02:22:11;22.60;;;15.15;;
16845;SDS011;8539;53.188;8.696;2024-01-30T02:24:39;20.85;;;13.80;;
16845;SDS011;8539;53.188;8.696;2024-01-30T02:27:06;24.50;;;13.80;;
16845;SDS011;8539;53.188;8.696;2024-01-30T02:29:33;19.65;;;14.27;;
16845;SDS011;8539;53.188;8.696;2024-01-30T02:32:01;16.85;;;13.23;;
16845;SDS011;8539;53.188;8.696;2024-01-30T02:34:28;21.52;;;13.93;;
16845;SDS011;8539;53.188;8.696;2024-01-30T02:36:55;20.77;;;13.68;;
16845;SDS011;8539;53.188;8.696;2024-01-30T02:39:23;25.98;;;14.50;;
16845;SDS011;8539;53.188;8.696;2024-01-30T02:41:50;22.50;;;14.63;;
16845;SDS011;8539;53.188;8.696;2024-01-30T02:44:18;20.15;;;14.15;;
16845;SDS011;8539;53.188;8.696;2024-01-30T02:46:48;24.35;;;15.35;;
16845;SDS011;8539;53.188;8.696;2024-01-30T02:49:15;21.65;;;14.98;;
16845;SDS011;8539;53.188;8.696;2024-01-30T02:51:42;27.05;;;14.52;;
16845;SDS011;8539;53.188;8.696;2024-01-30T02:54:10;25.92;;;16.15;;
16845;SDS011;8539;53.188;8.696;2024-01-30T02:56:38;23.30;;;14.15;;
16845;SDS011;8539;53.188;8.696;2024-01-30T02:59:10;19.67;;;13.80;;
16845;SDS011;8539;53.188;8.696;2024-01-30T03:01:52;33.60;;;15.95;;
16845;SDS011;8539;53.188;8.696;2024-01-30T03:04:27;22.90;;;15.02;;
16845;SDS011;8539;53.188;8.696;2024-01-30T03:07:01;23.58;;;15.27;;
16845;SDS011;8539;53.188;8.696;2024-01-30T03:09:30;27.48;;;17.77;;
16845;SDS011;8539;53.188;8.696;2024-01-30T03:12:00;22.70;;;14.65;;
16845;SDS011;8539;53.188;8.696;2024-01-30T03:14:44;25.40;;;15.48;;
16845;SDS011;8539;53.188;8.696;2024-01-30T03:17:15;28.65;;;15.68;;
16845;SDS011;8539;53.188;8.696;2024-01-30T03:19:47;28.27;;;16.27;;
16845;SDS011;8539;53.188;8.696;2024-01-30T03:25:03;23.58;;;14.98;;
16845;SDS011;8539;53.188;8.696;2024-01-30T03:27:31;21.92;;;14.88;;
16845;SDS011;8539;53.188;8.696;2024-01-30T03:29:58;24.45;;;14.98;;
16845;SDS011;8539;53.188;8.696;2024-01-30T03:32:25;23.40;;;15.48;;
16845;SDS011;8539;53.188;8.696;2024-01-30T03:34:53;26.67;;;14.50;;
16845;SDS011;8539;53.188;8.696;2024-01-30T03:37:20;22.83;;;15.25;;
16845;SDS011;8539;53.188;8.696;2024-01-30T03:39:48;27.58;;;15.88;;
16845;SDS011;8539;53.188;8.696;2024-01-30T03:42:15;22.20;;;15.48;;
16845;SDS011;8539;53.188;8.696;2024-01-30T03:44:42;23.88;;;15.13;;
16845;SDS011;8539;53.188;8.696;2024-01-30T03:47:09;25.42;;;14.65;;
16845;SDS011;8539;53.188;8.696;2024-01-30T03:49:36;28.90;;;16.52;;
16845;SDS011;8539;53.188;8.696;2024-01-30T03:52:04;24.60;;;16.45;;
16845;SDS011;8539;53.188;8.696;2024-01-30T03:54:31;23.08;;;15.15;;
16845;SDS011;8539;53.188;8.696;2024-01-30T03:56:58;23.02;;;14.95;;
16845;SDS011;8539;53.188;8.696;2024-01-30T03:59:29;33.13;;;16.17;;
16845;SDS011;8539;53.188;8.696;2024-01-30T04:02:02;26.33;;;16.13;;
16845;SDS011;8539;53.188;8.696;2024-01-30T04:04:34;25.93;;;16.47;;
16845;SDS011;8539;53.188;8.696;2024-01-30T04:07:05;24.35;;;15.80;;
16845;SDS011;8539;53.188;8.696;2024-01-30T04:09:32;28.20;;;17.42;;
16845;SDS011;8539;53.188;8.696;2024-01-30T04:12:00;26.17;;;15.98;;
16845;SDS011;8539;53.188;8.696;2024-01-30T04:14:29;27.02;;;16.45;;
16845;SDS011;8539;53.188;8.696;2024-01-30T04:16:56;27.38;;;17.40;;
16845;SDS011;8539;53.188;8.696;2024-01-30T04:19:23;26.30;;;17.73;;
16845;SDS011;8539;53.188;8.696;2024-01-30T04:21:51;30.50;;;19.42;;
16845;SDS011;8539;53.188;8.696;2024-01-30T04:24:18;30.77;;;18.67;;
16845;SDS011;8539;53.188;8.696;2024-01-30T04:26:48;24.58;;;17.25;;
16845;SDS011;8539;53.188;8.696;2024-01-30T04:29:15;28.42;;;17.33;;
16845;SDS011;8539;53.188;8.696;2024-01-30T04:31:42;27.40;;;19.33;;
16845;SDS011;8539;53.188;8.696;2024-01-30T04:34:09;29.20;;;19.25;;
16845;SDS011;8539;53.188;8.696;2024-01-30T04:36:36;29.15;;;17.58;;
16845;SDS011;8539;53.188;8.696;2024-01-30T04:39:04;29.98;;;17.20;;
16845;SDS011;8539;53.188;8.696;2024-01-30T04:41:31;25.63;;;18.42;;
16845;SDS011;8539;53.188;8.696;2024-01-30T04:43:58;29.50;;;17.35;;
16845;SDS011;8539;53.188;8.696;2024-01-30T04:46:26;29.75;;;18.10;;
16845;SDS011;8539;53.188;8.696;2024-01-30T04:48:53;23.50;;;17.05;;
16845;SDS011;8539;53.188;8.696;2024-01-30T04:51:20;23.67;;;16.35;;
16845;SDS011;8539;53.188;8.696;2024-01-30T04:53:47;22.63;;;16.77;;
16845;SDS011;8539;53.188;8.696;2024-01-30T04:56:14;31.05;;;17.85;;
16845;SDS011;8539;53.188;8.696;2024-01-30T04:58:41;26.92;;;18.67;;
16845;SDS011;8539;53.188;8.696;2024-01-30T05:01:08;29.48;;;17.85;;
16845;SDS011;8539;53.188;8.696;2024-01-30T05:03:36;22.08;;;16.92;;
16845;SDS011;8539;53.188;8.696;2024-01-30T05:06:06;22.33;;;16.30;;
16845;SDS011;8539;53.188;8.696;2024-01-30T05:08:33;26.20;;;16.50;;
16845;SDS011;8539;53.188;8.696;2024-01-30T05:11:03;28.48;;;17.45;;
16845;SDS011;8539;53.188;8.696;2024-01-30T05:13:31;24.80;;;16.55;;
16845;SDS011;8539;53.188;8.696;2024-01-30T05:16:01;23.98;;;16.88;;
16845;SDS011;8539;53.188;8.696;2024-01-30T05:18:30;23.13;;;15.73;;
16845;SDS011;8539;53.188;8.696;2024-01-30T05:20:57;24.98;;;16.17;;
16845;SDS011;8539;53.188;8.696;2024-01-30T05:23:25;32.72;;;18.08;;
16845;SDS011;8539;53.188;8.696;2024-01-30T05:25:52;30.13;;;16.98;;
16845;SDS011;8539;53.188;8.696;2024-01-30T05:28:22;24.75;;;16.17;;
16845;SDS011;8539;53.188;8.696;2024-01-30T05:30:50;27.08;;;17.95;;
16845;SDS011;8539;53.188;8.696;2024-01-30T05:33:17;30.23;;;18.70;;
16845;SDS011;8539;53.188;8.696;2024-01-30T05:35:46;32.10;;;19.60;;
16845;SDS011;8539;53.188;8.696;2024-01-30T05:38:16;25.85;;;19.65;;
16845;SDS011;8539;53.188;8.696;2024-01-30T05:40:44;31.73;;;18.95;;
16845;SDS011;8539;53.188;8.696;2024-01-30T05:43:16;30.08;;;20.67;;
16845;SDS011;8539;53.188;8.696;2024-01-30T05:45:49;32.47;;;20.10;;
16845;SDS011;8539;53.188;8.696;2024-01-30T05:48:25;33.38;;;19.83;;
16845;SDS011;8539;53.188;8.696;2024-01-30T05:50:55;28.30;;;19.45;;
16845;SDS011;8539;53.188;8.696;2024-01-30T05:53:23;26.85;;;18.92;;
16845;SDS011;8539;53.188;8.696;2024-01-30T05:55:51;28.02;;;19.45;;
16845;SDS011;8539;53.188;8.696;2024-01-30T05:58:18;30.23;;;18.40;;
16845;SDS011;8539;53.188;8.696;2024-01-30T06:00:45;27.13;;;19.58;;
16845;SDS011;8539;53.188;8.696;2024-01-30T06:03:13;33.63;;;21.48;;
16845;SDS011;8539;53.188;8.696;2024-01-30T06:05:40;32.25;;;19.98;;
16845;SDS011;8539;53.188;8.696;2024-01-30T06:08:07;27.63;;;19.23;;
16845;SDS011;8539;53.188;8.696;2024-01-30T06:10:34;32.55;;;20.55;;
16845;SDS011;8539;53.188;8.696;2024-01-30T06:13:02;33.55;;;20.45;;
16845;SDS011;8539;53.188;8.696;2024-01-30T06:15:29;36.53;;;20.48;;
16845;SDS011;8539;53.188;8.696;2024-01-30T06:17:56;29.23;;;19.42;;
16845;SDS011;8539;53.188;8.696;2024-01-30T06:20:24;36.30;;;22.02;;
16845;SDS011;8539;53.188;8.696;2024-01-30T06:22:52;31.80;;;19.20;;
16845;SDS011;8539;53.188;8.696;2024-01-30T06:25:20;39.03;;;24.55;;
16845;SDS011;8539;53.188;8.696;2024-01-30T06:27:53;30.73;;;21.80;;
16845;SDS011;8539;53.188;8.696;2024-01-30T06:30:21;26.80;;;20.90;;
16845;SDS011;8539;53.188;8.696;2024-01-30T06:32:48;24.80;;;19.35;;
16845;SDS011;8539;53.188;8.696;2024-01-30T06:35:16;28.05;;;19.48;;
16845;SDS011;8539;53.188;8.696;2024-01-30T06:40:31;31.38;;;22.30;;
16845;SDS011;8539;53.188;8.696;2024-01-30T06:42:58;30.58;;;21.52;;
16845;SDS011;8539;53.188;8.696;2024-01-30T06:45:25;33.25;;;21.38;;
16845;SDS011;8539;53.188;8.696;2024-01-30T06:47:52;30.60;;;21.48;;
16845;SDS011;8539;53.188;8.696;2024-01-30T06:50:19;32.08;;;21.17;;
16845;SDS011;8539;53.188;8.696;2024-01-30T06:52:49;34.22;;;20.88;;
16845;SDS011;8539;53.188;8.696;2024-01-30T06:55:17;30.85;;;20.25;;
16845;SDS011;8539;53.188;8.696;2024-01-30T06:57:45;26.08;;;18.25;;
16845;SDS011;8539;53.188;8.696;2024-01-30T07:00:14;33.22;;;21.85;;
16845;SDS011;8539;53.188;8.696;2024-01-30T07:02:41;29.58;;;20.70;;
16845;SDS011;8539;53.188;8.696;2024-01-30T07:05:09;31.08;;;20.33;;
16845;SDS011;8539;53.188;8.696;2024-01-30T07:07:36;35.83;;;20.90;;
16845;SDS011;8539;53.188;8.696;2024-01-30T07:10:03;28.67;;;20.38;;
16845;SDS011;8539;53.188;8.696;2024-01-30T07:12:32;33.63;;;19.90;;
16845;SDS011;8539;53.188;8.696;2024-01-30T07:14:59;28.08;;;18.92;;
16845;SDS011;8539;53.188;8.696;2024-01-30T07:17:26;40.20;;;21.23;;
16845;SDS011;8539;53.188;8.696;2024-01-30T07:19:54;32.33;;;19.73;;
16845;SDS011;8539;53.188;8.696;2024-01-30T07:22:21;33.55;;;19.23;;
16845;SDS011;8539;53.188;8.696;2024-01-30T07:24:48;30.67;;;21.15;;
16845;SDS011;8539;53.188;8.696;2024-01-30T07:27:21;30.43;;;20.70;;
16845;SDS011;8539;53.188;8.696;2024-01-30T07:29:58;32.97;;;21.10;;
16845;SDS011;8539;53.188;8.696;2024-01-30T07:32:35;29.70;;;20.30;;
16845;SDS011;8539;53.188;8.696;2024-01-30T07:35:12;35.53;;;20.27;;
16845;SDS011;8539;53.188;8.696;2024-01-30T07:37:54;38.75;;;21.17;;
16845;SDS011;8539;53.188;8.696;2024-01-30T07:40:21;32.80;;;21.50;;
16845;SDS011;8539;53.188;8.696;2024-01-30T07:42:57;35.30;;;21.75;;
16845;SDS011;8539;53.188;8.696;2024-01-30T07:45:30;32.97;;;20.88;;
16845;SDS011;8539;53.188;8.696;2024-01-30T07:48:02;34.83;;;21.05;;
16845;SDS011;8539;53.188;8.696;2024-01-30T07:50:38;29.35;;;19.73;;
16845;SDS011;8539;53.188;8.696;2024-01-30T07:53:05;28.20;;;19.45;;
16845;SDS011;8539;53.188;8.696;2024-01-30T07:55:35;29.08;;;19.63;;
16845;SDS011;8539;53.188;8.696;2024-01-30T08:01:38;29.02;;;18.23;;
16845;SDS011;8539;53.188;8.696;2024-01-30T08:04:13;27.83;;;19.88;;
16845;SDS011;8539;53.188;8.696;2024-01-30T08:06:40;41.47;;;19.58;;
16845;SDS011;8539;53.188;8.696;2024-01-30T08:09:10;30.70;;;19.98;;
16845;SDS011;8539;53.188;8.696;2024-01-30T08:11:37;35.22;;;19.85;;
16845;SDS011;8539;53.188;8.696;2024-01-30T08:14:04;27.10;;;18.90;;
16845;SDS011;8539;53.188;8.696;2024-01-30T08:16:31;26.45;;;19.17;;
16845;SDS011;8539;53.188;8.696;2024-01-30T08:18:59;29.10;;;18.55;;
16845;SDS011;8539;53.188;8.696;2024-01-30T08:21:27;28.98;;;19.05;;
16845;SDS011;8539;53.188;8.696;2024-01-30T08:23:54;33.03;;;20.27;;
16845;SDS011;8539;53.188;8.696;2024-01-30T08:26:21;27.17;;;19.63;;
16845;SDS011;8539;53.188;8.696;2024-01-30T08:28:48;28.23;;;18.77;;
16845;SDS011;8539;53.188;8.696;2024-01-30T08:31:16;29.60;;;19.13;;
16845;SDS011;8539;53.188;8.696;2024-01-30T08:33:44;30.05;;;18.45;;
16845;SDS011;8539;53.188;8.696;2024-01-30T08:36:25;29.88;;;19.70;;
16845;SDS011;8539;53.188;8.696;2024-01-30T08:39:31;24.80;;;17.70;;
16845;SDS011;8539;53.188;8.696;2024-01-30T08:42:30;27.85;;;17.42;;
16845;SDS011;8539;53.188;8.696;2024-01-30T08:45:12;28.95;;;17.85;;
16845;SDS011;8539;53.188;8.696;2024-01-30T08:47:40;28.48;;;18.00;;
16845;SDS011;8539;53.188;8.696;2024-01-30T08:50:24;24.23;;;17.60;;
16845;SDS011;8539;53.188;8.696;2024-01-30T08:52:54;29.95;;;18.00;;
16845;SDS011;8539;53.188;8.696;2024-01-30T08:55:30;28.02;;;18.00;;
16845;SDS011;8539;53.188;8.696;2024-01-30T08:57:59;31.00;;;17.98;;
16845;SDS011;8539;53.188;8.696;2024-01-30T09:00:32;23.48;;;16.92;;
16845;SDS011;8539;53.188;8.696;2024-01-30T09:03:13;24.08;;;16.40;;
16845;SDS011;8539;53.188;8.696;2024-01-30T09:06:12;24.45;;;16.88;;
16845;SDS011;8539;53.188;8.696;2024-01-30T09:08:45;24.95;;;15.45;;
16845;SDS011;8539;53.188;8.696;2024-01-30T09:11:31;25.08;;;15.32;;
16845;SDS011;8539;53.188;8.696;2024-01-30T09:14:04;21.52;;;15.02;;
16845;SDS011;8539;53.188;8.696;2024-01-30T09:16:34;22.48;;;14.82;;
16845;SDS011;8539;53.188;8.696;2024-01-30T09:21:43;31.42;;;16.70;;
16845;SDS011;8539;53.188;8.696;2024-01-30T09:24:28;19.23;;;14.15;;
16845;SDS011;8539;53.188;8.696;2024-01-30T09:27:05;24.08;;;13.52;;
16845;SDS011;8539;53.188;8.696;2024-01-30T09:29:33;20.08;;;14.65;;
16845;SDS011;8539;53.188;8.696;2024-01-30T09:32:03;24.17;;;14.45;;
16845;SDS011;8539;53.188;8.696;2024-01-30T09:34:32;19.92;;;12.50;;
16845;SDS011;8539;53.188;8.696;2024-01-30T09:36:59;19.52;;;13.85;;
16845;SDS011;8539;53.188;8.696;2024-01-30T09:39:27;25.60;;;15.25;;
16845;SDS011;8539;53.188;8.696;2024-01-30T09:42:26;20.55;;;14.10;;
16845;SDS011;8539;53.188;8.696;2024-01-30T09:45:11;19.90;;;14.10;;
16845;SDS011;8539;53.188;8.696;2024-01-30T09:47:41;23.45;;;15.05;;
16845;SDS011;8539;53.188;8.696;2024-01-30T09:50:31;22.98;;;14.65;;
16845;SDS011;8539;53.188;8.696;2024-01-30T09:52:58;22.63;;;13.90;;
16845;SDS011;8539;53.188;8.696;2024-01-30T09:55:32;20.98;;;13.45;;
16845;SDS011;8539;53.188;8.696;2024-01-30T09:57:59;19.45;;;13.07;;
16845;SDS011;8539;53.188;8.696;2024-01-30T10:00:27;21.85;;;13.35;;
16845;SDS011;8539;53.188;8.696;2024-01-30T10:02:54;18.05;;;12.15;;
16845;SDS011;8539;53.188;8.696;2024-01-30T10:05:21;21.20;;;12.77;;
16845;SDS011;8539;53.188;8.696;2024-01-30T10:07:55;21.60;;;11.13;;
16845;SDS011;8539;53.188;8.696;2024-01-30T10:10:24;18.45;;;12.45;;
16845;SDS011;8539;53.188;8.696;2024-01-30T10:13:04;19.80;;;13.30;;
16845;SDS011;8539;53.188;8.696;2024-01-30T10:15:32;15.57;;;12.02;;
16845;SDS011;8539;53.188;8.696;2024-01-30T10:18:02;14.68;;;10.60;;
16845;SDS011;8539;53.188;8.696;2024-01-30T10:20:35;16.48;;;12.82;;
16845;SDS011;8539;53.188;8.696;2024-01-30T10:23:06;26.48;;;14.35;;
16845;SDS011;8539;53.188;8.696;2024-01-30T10:25:34;15.10;;;10.95;;
16845;SDS011;8539;53.188;8.696;2024-01-30T10:28:02;18.70;;;12.07;;
16845;SDS011;8539;53.188;8.696;2024-01-30T10:30:30;13.45;;;10.50;;
16845;SDS011;8539;53.188;8.696;2024-01-30T10:32:58;16.95;;;11.80;;
16845;SDS011;8539;53.188;8.696;2024-01-30T10:35:25;17.02;;;11.32;;
16845;SDS011;8539;53.188;8.696;2024-01-30T10:37:53;15.80;;;10.80;;
16845;SDS011;8539;53.188;8.696;2024-01-30T10:40:24;17.63;;;11.23;;
16845;SDS011;8539;53.188;8.696;2024-01-30T10:42:56;18.65;;;11.45;;
16845;SDS011;8539;53.188;8.696;2024-01-30T10:45:30;15.35;;;11.05;;
16845;SDS011;8539;53.188;8.696;2024-01-30T10:47:59;14.20;;;10.82;;
16845;SDS011;8539;53.188;8.696;2024-01-30T10:50:28;23.98;;;11.38;;
16845;SDS011;8539;53.188;8.696;2024-01-30T10:52:57;16.77;;;10.98;;
16845;SDS011;8539;53.188;8.696;2024-01-30T10:55:26;17.05;;;10.75;;
16845;SDS011;8539;53.188;8.696;2024-01-30T10:57:56;15.32;;;11.57;;
16845;SDS011;8539;53.188;8.696;2024-01-30T11:00:23;13.85;;;10.32;;
16845;SDS011;8539;53.188;8.696;2024-01-30T11:02:54;22.65;;;11.98;;
16845;SDS011;8539;53.188;8.696;2024-01-30T11:05:25;15.07;;;11.73;;
16845;SDS011;8539;53.188;8.696;2024-01-30T11:07:59;19.23;;;11.93;;
16845;SDS011;8539;53.188;8.696;2024-01-30T11:10:44;20.30;;;11.07;;
16845;SDS011;8539;53.188;8.696;2024-01-30T11:13:14;20.85;;;12.25;;
16845;SDS011;8539;53.188;8.696;2024-01-30T11:15:42;20.42;;;11.35;;
16845;SDS011;8539;53.188;8.696;2024-01-30T11:18:10;16.67;;;11.27;;
16845;SDS011;8539;53.188;8.696;2024-01-30T11:20:37;17.60;;;10.65;;
16845;SDS011;8539;53.188;8.696;2024-01-30T11:23:12;18.58;;;10.77;;
16845;SDS011;8539;53.188;8.696;2024-01-30T11:25:39;19.27;;;11.02;;
16845;SDS011;8539;53.188;8.696;2024-01-30T11:28:06;15.43;;;9.82;;
16845;SDS011;8539;53.188;8.696;2024-01-30T11:30:42;14.38;;;10.80;;
16845;SDS011;8539;53.188;8.696;2024-01-30T11:33:11;18.67;;;10.32;;
16845;SDS011;8539;53.188;8.696;2024-01-30T11:35:42;12.55;;;10.20;;
16845;SDS011;8539;53.188;8.696;2024-01-30T11:38:11;16.67;;;10.57;;
16845;SDS011;8539;53.188;8.696;2024-01-30T11:40:40;20.00;;;10.82;;
16845;SDS011;8539;53.188;8.696;2024-01-30T11:43:08;13.48;;;10.57;;
16845;SDS011;8539;53.188;8.696;2024-01-30T11:45:36;17.63;;;10.13;;
16845;SDS011;8539;53.188;8.696;2024-01-30T11:48:04;16.92;;;10.95;;
16845;SDS011;8539;53.188;8.696;2024-01-30T11:50:33;15.95;;;10.13;;
16845;SDS011;8539;53.188;8.696;2024-01-30T11:53:03;13.43;;;9.98;;
16845;SDS011;8539;53.188;8.696;2024-01-30T11:55:41;19.90;;;11.40;;
16845;SDS011;8539;53.188;8.696;2024-01-30T11:58:37;15.38;;;10.23;;
16845;SDS011;8539;53.188;8.696;2024-01-30T12:01:19;19.73;;;10.68;;
16845;SDS011;8539;53.188;8.696;2024-01-30T12:03:53;14.93;;;10.25;;
16845;SDS011;8539;53.188;8.696;2024-01-30T12:06:34;14.77;;;9.80;;
16845;SDS011;8539;53.188;8.696;2024-01-30T12:09:26;14.40;;;9.27;;
16845;SDS011;8539;53.188;8.696;2024-01-30T12:11:54;14.40;;;10.05;;
16845;SDS011;8539;53.188;8.696;2024-01-30T12:14:22;15.02;;;10.27;;
16845;SDS011;8539;53.188;8.696;2024-01-30T12:16:51;15.15;;;9.43;;
16845;SDS011;8539;53.188;8.696;2024-01-30T12:19:22;17.23;;;10.05;;
16845;SDS011;8539;53.188;8.696;2024-01-30T12:21:56;14.13;;;9.55;;
16845;SDS011;8539;53.188;8.696;2024-01-30T12:24:27;15.98;;;10.48;;
16845;SDS011;8539;53.188;8.696;2024-01-30T12:27:00;15.55;;;10.40;;
16845;SDS011;8539;53.188;8.696;2024-01-30T12:29:32;14.53;;;9.43;;
16845;SDS011;8539;53.188;8.696;2024-01-30T12:32:03;19.88;;;10.77;;
16845;SDS011;8539;53.188;8.696;2024-01-30T12:34:31;16.38;;;9.38;;
16845;SDS011;8539;53.188;8.696;2024-01-30T12:39:53;14.90;;;9.20;;
16845;SDS011;8539;53.188;8.696;2024-01-30T12:42:21;15.05;;;10.25;;
16845;SDS011;8539;53.188;8.696;2024-01-30T12:44:49;14.60;;;9.73;;
16845;SDS011;8539;53.188;8.696;2024-01-30T12:47:21;15.60;;;9.95;;
16845;SDS011;8539;53.188;8.696;2024-01-30T12:49:48;20.25;;;9.13;;
16845;SDS011;8539;53.188;8.696;2024-01-30T12:52:16;18.70;;;9.65;;
16845;SDS011;8539;53.188;8.696;2024-01-30T12:54:43;14.88;;;9.80;;
16845;SDS011;8539;53.188;8.696;2024-01-30T12:57:11;20.15;;;10.40;;
16845;SDS011;8539;53.188;8.696;2024-01-30T12:59:38;11.82;;;9.05;;
16845;SDS011;8539;53.188;8.696;2024-01-30T13:02:06;20.58;;;10.27;;
16845;SDS011;8539;53.188;8.696;2024-01-30T13:04:34;19.20;;;10.00;;
16845;SDS011;8539;53.188;8.696;2024-01-30T13:07:01;15.20;;;8.90;;
16845;SDS011;8539;53.188;8.696;2024-01-30T13:09:29;13.23;;;9.55;;
16845;SDS011;8539;53.188;8.696;2024-01-30T13:11:58;18.05;;;9.93;;
16845;SDS011;8539;53.188;8.696;2024-01-30T13:14:29;17.40;;;9.15;;
16845;SDS011;8539;53.188;8.696;2024-01-30T13:17:10;13.65;;;9.60;;
16845;SDS011;8539;53.188;8.696;2024-01-30T13:19:51;18.23;;;10.18;;
16845;SDS011;8539;53.188;8.696;2024-01-30T13:22:18;18.90;;;10.05;;
16845;SDS011;8539;53.188;8.696;2024-01-30T13:24:47;12.63;;;10.15;;
16845;SDS011;8539;53.188;8.696;2024-01-30T13:27:15;17.35;;;10.18;;
16845;SDS011;8539;53.188;8.696;2024-01-30T13:29:42;24.95;;;10.13;;
16845;SDS011;8539;53.188;8.696;2024-01-30T13:32:09;16.83;;;9.63;;
16845;SDS011;8539;53.188;8.696;2024-01-30T13:34:39;14.07;;;10.60;;
16845;SDS011;8539;53.188;8.696;2024-01-30T13:37:07;17.45;;;10.55;;
16845;SDS011;8539;53.188;8.696;2024-01-30T13:39:38;29.90;;;11.43;;
16845;SDS011;8539;53.188;8.696;2024-01-30T13:42:05;14.50;;;10.60;;
16845;SDS011;8539;53.188;8.696;2024-01-30T13:44:34;14.38;;;9.45;;
16845;SDS011;8539;53.188;8.696;2024-01-30T13:47:04;15.88;;;9.70;;
16845;SDS011;8539;53.188;8.696;2024-01-30T13:49:32;16.20;;;10.23;;
16845;SDS011;8539;53.188;8.696;2024-01-30T13:51:59;16.25;;;9.48;;
16845;SDS011;8539;53.188;8.696;2024-01-30T13:54:27;13.23;;;9.98;;
16845;SDS011;8539;53.188;8.696;2024-01-30T13:56:54;15.23;;;10.88;;
16845;SDS011;8539;53.188;8.696;2024-01-30T13:59:21;19.35;;;10.45;;
16845;SDS011;8539;53.188;8.696;2024-01-30T14:01:52;19.05;;;10.38;;
16845;SDS011;8539;53.188;8.696;2024-01-30T14:04:21;17.50;;;12.13;;
16845;SDS011;8539;53.188;8.696;2024-01-30T14:06:51;22.98;;;11.38;;
16845;SDS011;8539;53.188;8.696;2024-01-30T14:09:29;19.75;;;10.52;;
16845;SDS011;8539;53.188;8.696;2024-01-30T14:11:58;15.63;;;10.25;;
16845;SDS011;8539;53.188;8.696;2024-01-30T14:14:26;16.58;;;10.93;;
16845;SDS011;8539;53.188;8.696;2024-01-30T14:16:54;17.73;;;11.13;;
16845;SDS011;8539;53.188;8.696;2024-01-30T14:19:24;18.65;;;10.18;;
16845;SDS011;8539;53.188;8.696;2024-01-30T14:21:52;14.02;;;10.25;;
16845;SDS011;8539;53.188;8.696;2024-01-30T14:24:19;18.42;;;11.18;;
16845;SDS011;8539;53.188;8.696;2024-01-30T14:26:46;34.45;;;13.68;;
16845;SDS011;8539;53.188;8.696;2024-01-30T14:29:13;15.15;;;10.52;;
16845;SDS011;8539;53.188;8.696;2024-01-30T14:31:40;15.88;;;10.35;;
16845;SDS011;8539;53.188;8.696;2024-01-30T14:34:08;19.80;;;10.15;;
16845;SDS011;8539;53.188;8.696;2024-01-30T14:36:37;25.52;;;10.45;;
16845;SDS011;8539;53.188;8.696;2024-01-30T14:39:05;15.18;;;10.90;;
16845;SDS011;8539;53.188;8.696;2024-01-30T14:41:33;14.63;;;10.00;;
16845;SDS011;8539;53.188;8.696;2024-01-30T14:44:09;17.58;;;10.93;;
16845;SDS011;8539;53.188;8.696;2024-01-30T14:46:43;17.10;;;9.88;;
16845;SDS011;8539;53.188;8.696;2024-01-30T14:49:11;18.35;;;9.07;;
16845;SDS011;8539;53.188;8.696;2024-01-30T14:51:47;21.02;;;10.63;;
16845;SDS011;8539;53.188;8.696;2024-01-30T14:54:29;14.10;;;9.50;;
16845;SDS011;8539;53.188;8.696;2024-01-30T14:57:04;14.13;;;9.05;;
16845;SDS011;8539;53.188;8.696;2024-01-30T14:59:45;13.18;;;8.90;;
16845;SDS011;8539;53.188;8.696;2024-01-30T15:02:16;11.13;;;8.75;;
16845;SDS011;8539;53.188;8.696;2024-01-30T15:04:44;20.42;;;9.25;;
16845;SDS011;8539;53.188;8.696;2024-01-30T15:07:11;20.27;;;9.07;;
16845;SDS011;8539;53.188;8.696;2024-01-30T15:09:45;20.17;;;9.98;;
16845;SDS011;8539;53.188;8.696;2024-01-30T15:12:12;15.70;;;9.45;;
16845;SDS011;8539;53.188;8.696;2024-01-30T15:14:41;17.67;;;9.30;;
16845;SDS011;8539;53.188;8.696;2024-01-30T15:17:17;17.63;;;9.07;;